Time;durP1;ratioP1;P1;durP2;ratioP2;P2;SDS_P1;SDS_P2;PMS_P1;PMS_P2;Temp;Humidity;BMP_temperature;BMP_pressure;BME280_temperature;BME280_humidity;BME280_pressure;Samples;Min_cycle;Max_cycle;Signal;HPM_P1;HPM_P2
2023/05/03 00:01:12;;;;;;;8.63;6.35;;;;;;;;;;5049145;28;20417;-68
2023/05/03 00:03:39;;;;;;;9.38;6.63;;;;;;;;;;5070477;28;20516;-68
2023/05/03 00:06:12;;;;;;;7.53;5.90;;;;;;;;;;5048114;28;20041;-68
2023/05/03 00:08:39;;;;;;;7.80;6.30;;;;;;;;;;5073192;28;20058;-68
2023/05/03 00:11:05;;;;;;;6.35;5.57;;;;;;;;;;5050107;28;20056;-68
2023/05/03 00:13:32;;;;;;;6.78;6.07;;;;;;;;;;5074600;28;20049;-68
2023/05/03 00:15:58;;;;;;;8.68;6.43;;;;;;;;;;5048496;28;20135;-68
2023/05/03 00:18:24;;;;;;;10.02;6.28;;;;;;;;;;5049737;28;20055;-68
2023/05/03 00:20:54;;;;;;;12.43;7.30;;;;;;;;;;5069059;28;20052;-68
2023/05/03 00:23:20;;;;;;;10.52;7.65;;;;;;;;;;5050926;28;20044;-68
2023/05/03 00:25:51;;;;;;;10.05;7.55;;;;;;;;;;5073439;28;20129;-68
2023/05/03 00:28:17;;;;;;;11.98;8.05;;;;;;;;;;5060396;28;20435;-68
2023/05/03 00:30:43;;;;;;;10.70;8.05;;;;;;;;;;5074371;28;20079;-68
2023/05/03 00:33:10;;;;;;;14.45;8.70;;;;;;;;;;5045728;28;20119;-68
2023/05/03 00:35:36;;;;;;;12.32;9.63;;;;;;;;;;5074227;28;20132;-68
2023/05/03 00:38:03;;;;;;;11.88;9.38;;;;;;;;;;5058851;28;20053;-68
2023/05/03 00:40:29;;;;;;;15.90;10.65;;;;;;;;;;5072602;28;20055;-68
2023/05/03 00:42:55;;;;;;;10.38;8.40;;;;;;;;;;5067720;28;20087;-68
2023/05/03 00:45:22;;;;;;;14.18;10.52;;;;;;;;;;5074148;28;20048;-68
2023/05/03 00:47:49;;;;;;;12.93;10.30;;;;;;;;;;5062176;28;20052;-68
2023/05/03 00:50:15;;;;;;;15.82;11.65;;;;;;;;;;5072912;28;20055;-68
2023/05/03 00:52:42;;;;;;;14.27;11.30;;;;;;;;;;5060892;28;20519;-68
2023/05/03 00:55:09;;;;;;;16.13;11.20;;;;;;;;;;5073597;28;20044;-68
2023/05/03 00:57:35;;;;;;;16.00;10.70;;;;;;;;;;5065586;28;20060;-68
2023/05/03 01:00:02;;;;;;;17.30;10.43;;;;;;;;;;5072564;28;20052;-68
2023/05/03 01:02:29;;;;;;;14.10;10.32;;;;;;;;;;5064014;28;20114;-68
2023/05/03 01:04:56;;;;;;;13.20;9.77;;;;;;;;;;5073586;28;20051;-68
2023/05/03 01:07:29;;;;;;;10.88;9.02;;;;;;;;;;5055817;28;20417;-68
2023/05/03 01:10:02;;;;;;;12.13;9.15;;;;;;;;;;5072071;28;20050;-68
2023/05/03 01:12:52;;;;;;;12.13;8.73;;;;;;;;;;5062735;28;20501;-68
2023/05/03 01:15:39;;;;;;;13.73;8.70;;;;;;;;;;5073817;28;20407;-68
2023/05/03 01:18:17;;;;;;;11.50;7.93;;;;;;;;;;5054026;28;20071;-68
2023/05/03 01:20:46;;;;;;;11.50;7.50;;;;;;;;;;5073175;28;20127;-68
2023/05/03 01:23:32;;;;;;;9.60;7.47;;;;;;;;;;5060443;28;20143;-68
2023/05/03 01:25:58;;;;;;;10.25;7.28;;;;;;;;;;5073272;28;20048;-68
2023/05/03 01:28:25;;;;;;;11.18;7.55;;;;;;;;;;5059432;28;20120;-68
2023/05/03 01:30:52;;;;;;;11.27;7.38;;;;;;;;;;5073005;28;20129;-68
2023/05/03 01:33:28;;;;;;;8.63;6.45;;;;;;;;;;5047040;28;20049;-68
2023/05/03 01:35:58;;;;;;;9.73;6.60;;;;;;;;;;5073054;28;20567;-68
2023/05/03 01:38:26;;;;;;;9.35;6.47;;;;;;;;;;5057405;28;20071;-68
2023/05/03 01:40:54;;;;;;;8.17;7.20;;;;;;;;;;5072421;28;20048;-68
2023/05/03 01:43:21;;;;;;;9.60;6.75;;;;;;;;;;5066664;28;20311;-68
2023/05/03 01:45:48;;;;;;;9.80;7.40;;;;;;;;;;5072970;28;20083;-68
2023/05/03 01:48:15;;;;;;;9.32;7.45;;;;;;;;;;5065765;28;20109;-68
2023/05/03 01:50:42;;;;;;;11.68;6.65;;;;;;;;;;5072773;28;20411;-68
2023/05/03 01:53:08;;;;;;;10.88;6.75;;;;;;;;;;5065277;28;20055;-68
2023/05/03 01:55:35;;;;;;;8.10;6.60;;;;;;;;;;5072527;28;20048;-68
2023/05/03 01:58:01;;;;;;;12.20;6.28;;;;;;;;;;5057918;28;20062;-68
2023/05/03 02:00:28;;;;;;;8.30;6.13;;;;;;;;;;5071237;28;20451;-68
2023/05/03 02:02:54;;;;;;;7.38;5.80;;;;;;;;;;5062984;28;20050;-68
2023/05/03 02:05:21;;;;;;;8.73;6.30;;;;;;;;;;5072646;28;20044;-68
2023/05/03 02:07:47;;;;;;;8.40;5.95;;;;;;;;;;5062094;28;20056;-68
2023/05/03 02:10:13;;;;;;;7.43;5.82;;;;;;;;;;5072278;28;20056;-68
2023/05/03 02:12:41;;;;;;;10.25;5.80;;;;;;;;;;5061202;28;20044;-68
2023/05/03 02:15:08;;;;;;;9.55;5.72;;;;;;;;;;5072290;28;20134;-68
2023/05/03 02:17:34;;;;;;;7.43;5.38;;;;;;;;;;5060061;28;20049;-68
2023/05/03 02:20:01;;;;;;;7.35;5.35;;;;;;;;;;5071145;28;20048;-68
2023/05/03 02:22:27;;;;;;;7.97;5.53;;;;;;;;;;5059764;28;20087;-68
2023/05/03 02:24:54;;;;;;;11.75;5.32;;;;;;;;;;5065642;28;20067;-68
2023/05/03 02:27:20;;;;;;;8.00;5.45;;;;;;;;;;5043386;28;20088;-68
2023/05/03 02:29:47;;;;;;;7.35;5.05;;;;;;;;;;5068347;28;20135;-68
2023/05/03 02:32:13;;;;;;;6.90;5.00;;;;;;;;;;5060595;28;20055;-68
2023/05/03 02:34:40;;;;;;;7.10;5.13;;;;;;;;;;5068611;28;20488;-68
2023/05/03 02:37:06;;;;;;;7.22;5.25;;;;;;;;;;5054817;28;20140;-68
2023/05/03 02:39:33;;;;;;;5.55;4.97;;;;;;;;;;5060707;28;20053;-68
2023/05/03 02:41:59;;;;;;;6.53;4.15;;;;;;;;;;5065886;28;20127;-68
2023/05/03 02:44:25;;;;;;;6.45;4.78;;;;;;;;;;5071918;28;20415;-68
2023/05/03 02:46:53;;;;;;;9.32;4.70;;;;;;;;;;5064907;28;20053;-68
2023/05/03 02:49:19;;;;;;;7.03;5.07;;;;;;;;;;5070399;28;20056;-68
2023/05/03 02:51:46;;;;;;;6.18;4.70;;;;;;;;;;5064494;28;20048;-68
2023/05/03 02:54:12;;;;;;;6.47;4.80;;;;;;;;;;5071353;28;20055;-68
2023/05/03 02:56:39;;;;;;;7.10;4.60;;;;;;;;;;5062267;28;20048;-68
2023/05/03 02:59:05;;;;;;;5.72;4.55;;;;;;;;;;5069670;28;20495;-68
2023/05/03 03:01:32;;;;;;;7.72;4.97;;;;;;;;;;5066284;28;20500;-68
2023/05/03 03:03:59;;;;;;;9.32;5.45;;;;;;;;;;5061046;28;20053;-68
2023/05/03 03:06:26;;;;;;;7.55;4.63;;;;;;;;;;5067297;28;20049;-68
2023/05/03 03:08:53;;;;;;;7.28;4.43;;;;;;;;;;5064471;28;20470;-68
2023/05/03 03:11:19;;;;;;;5.38;4.07;;;;;;;;;;5067066;28;20040;-68
2023/05/03 03:13:46;;;;;;;5.72;3.97;;;;;;;;;;5057278;28;20078;-68
2023/05/03 03:16:12;;;;;;;5.82;4.28;;;;;;;;;;5069202;28;20391;-68
2023/05/03 03:18:39;;;;;;;5.13;3.92;;;;;;;;;;5052459;28;20052;-68
2023/05/03 03:21:05;;;;;;;5.00;3.90;;;;;;;;;;5070547;28;20060;-68
2023/05/03 03:23:32;;;;;;;4.82;3.90;;;;;;;;;;5059798;28;20087;-68
2023/05/03 03:25:58;;;;;;;6.93;3.95;;;;;;;;;;5071186;28;20054;-68
2023/05/03 03:28:25;;;;;;;5.45;3.97;;;;;;;;;;5056601;28;20123;-68
2023/05/03 03:30:51;;;;;;;6.03;4.07;;;;;;;;;;5071045;28;20049;-68
2023/05/03 03:33:17;;;;;;;5.55;4.05;;;;;;;;;;5055861;28;20055;-68
2023/05/03 03:35:44;;;;;;;6.05;4.20;;;;;;;;;;5069915;28;20145;-68
2023/05/03 03:38:10;;;;;;;4.03;3.63;;;;;;;;;;5055103;28;20041;-68
2023/05/03 03:40:37;;;;;;;7.05;3.80;;;;;;;;;;5070744;28;20055;-68
2023/05/03 03:43:03;;;;;;;5.43;4.10;;;;;;;;;;5072487;28;20072;-68
2023/05/03 03:45:30;;;;;;;3.88;3.53;;;;;;;;;;5075347;28;20404;-68
2023/05/03 03:47:56;;;;;;;4.95;3.70;;;;;;;;;;5071329;28;20080;-68
2023/05/03 03:50:24;;;;;;;4.13;3.58;;;;;;;;;;5074632;28;20140;-68
2023/05/03 03:52:50;;;;;;;6.77;3.87;;;;;;;;;;5071243;28;20480;-68
2023/05/03 03:55:16;;;;;;;4.78;3.30;;;;;;;;;;5074997;28;20083;-68
2023/05/03 03:57:43;;;;;;;4.60;3.90;;;;;;;;;;5070096;28;20133;-68
2023/05/03 04:00:10;;;;;;;3.30;3.00;;;;;;;;;;5074402;28;20056;-68
2023/05/03 04:02:36;;;;;;;4.75;3.63;;;;;;;;;;5065657;28;20090;-68
2023/05/03 04:05:03;;;;;;;3.83;3.10;;;;;;;;;;5074591;28;20053;-68
2023/05/03 04:07:30;;;;;;;4.50;3.60;;;;;;;;;;5060676;28;20476;-68
2023/05/03 04:09:57;;;;;;;6.60;4.10;;;;;;;;;;5056947;28;20080;-68
2023/05/03 04:12:24;;;;;;;4.75;3.35;;;;;;;;;;5073833;28;20067;-68
2023/05/03 04:14:50;;;;;;;5.07;3.55;;;;;;;;;;5061783;28;20051;-68
2023/05/03 04:17:16;;;;;;;4.53;3.33;;;;;;;;;;5065901;28;20048;-68
2023/05/03 04:19:43;;;;;;;6.00;3.38;;;;;;;;;;5068381;28;20056;-68
2023/05/03 04:22:09;;;;;;;6.22;4.38;;;;;;;;;;5068402;28;20129;-68
2023/05/03 04:24:38;;;;;;;4.00;3.03;;;;;;;;;;5068633;28;20071;-68
2023/05/03 04:27:05;;;;;;;3.90;3.28;;;;;;;;;;5065700;28;20408;-68
2023/05/03 04:29:31;;;;;;;3.63;3.17;;;;;;;;;;5069071;28;20055;-68
2023/05/03 04:32:00;;;;;;;5.13;3.30;;;;;;;;;;5064980;28;20395;-68
2023/05/03 04:34:26;;;;;;;3.88;3.28;;;;;;;;;;5068369;28;20056;-68
2023/05/03 04:36:53;;;;;;;4.90;3.42;;;;;;;;;;5052258;28;20048;-68
2023/05/03 04:39:21;;;;;;;4.10;3.03;;;;;;;;;;5070982;28;20124;-68
2023/05/03 04:41:47;;;;;;;3.53;3.22;;;;;;;;;;5061666;28;20360;-68
2023/05/03 04:44:14;;;;;;;4.47;3.20;;;;;;;;;;5071608;28;20415;-68
2023/05/03 04:46:42;;;;;;;4.57;3.50;;;;;;;;;;5058580;28;20044;-68
2023/05/03 04:49:08;;;;;;;4.05;3.13;;;;;;;;;;5072268;28;20051;-68
2023/05/03 04:51:35;;;;;;;3.90;3.50;;;;;;;;;;5070827;28;20143;-68
2023/05/03 04:54:01;;;;;;;3.42;3.10;;;;;;;;;;5073254;28;20044;-68
2023/05/03 04:56:28;;;;;;;3.80;3.35;;;;;;;;;;5066864;28;20052;-68
2023/05/03 04:58:54;;;;;;;3.92;3.30;;;;;;;;;;5073807;28;20131;-68
2023/05/03 05:01:25;;;;;;;5.22;3.45;;;;;;;;;;5068499;28;20135;-68
2023/05/03 05:03:52;;;;;;;4.63;3.17;;;;;;;;;;5073756;28;20040;-68
2023/05/03 05:06:19;;;;;;;6.22;3.05;;;;;;;;;;5062655;28;20135;-68
2023/05/03 05:08:45;;;;;;;3.42;2.88;;;;;;;;;;5073089;28;20045;-68
2023/05/03 05:11:12;;;;;;;3.00;2.70;;;;;;;;;;5062401;28;20037;-68
2023/05/03 05:13:38;;;;;;;6.93;3.53;;;;;;;;;;5073540;28;20052;-68
2023/05/03 05:16:05;;;;;;;3.58;3.22;;;;;;;;;;5045494;28;20503;-68
2023/05/03 05:18:31;;;;;;;3.33;2.60;;;;;;;;;;5073451;28;20094;-68
2023/05/03 05:20:58;;;;;;;4.25;3.40;;;;;;;;;;5060645;28;20048;-68
2023/05/03 05:23:24;;;;;;;3.97;2.85;;;;;;;;;;5073216;28;20160;-68
2023/05/03 05:25:52;;;;;;;4.15;2.92;;;;;;;;;;5048183;28;20045;-68
2023/05/03 05:28:19;;;;;;;5.15;2.72;;;;;;;;;;5073227;28;20040;-68
2023/05/03 05:30:46;;;;;;;3.45;2.90;;;;;;;;;;5046932;28;20133;-68
2023/05/03 05:33:12;;;;;;;5.93;3.13;;;;;;;;;;5071913;28;20103;-68
2023/05/03 05:35:39;;;;;;;4.47;3.10;;;;;;;;;;5046161;28;20308;-68
2023/05/03 05:38:06;;;;;;;3.72;2.80;;;;;;;;;;5070953;28;20045;-67
2023/05/03 05:40:32;;;;;;;4.70;3.05;;;;;;;;;;5070836;28;20060;-68
2023/05/03 05:42:59;;;;;;;3.97;2.80;;;;;;;;;;5072860;28;20131;-68
2023/05/03 05:45:25;;;;;;;4.75;2.70;;;;;;;;;;5069637;28;20132;-68
2023/05/03 05:47:52;;;;;;;3.72;2.50;;;;;;;;;;5072097;28;20127;-68
2023/05/03 05:50:18;;;;;;;4.97;2.53;;;;;;;;;;5051607;28;20040;-68
2023/05/03 05:52:45;;;;;;;3.77;2.67;;;;;;;;;;5072401;28;20045;-68
2023/05/03 05:55:13;;;;;;;3.55;2.63;;;;;;;;;;5062971;28;20127;-68
2023/05/03 05:57:39;;;;;;;3.00;2.70;;;;;;;;;;5071059;28;20106;-68
2023/05/03 06:00:13;;;;;;;3.78;2.65;;;;;;;;;;5069249;28;20060;-68
2023/05/03 06:02:40;;;;;;;3.50;2.80;;;;;;;;;;5072546;28;20446;-68
2023/05/03 06:05:07;;;;;;;3.05;2.60;;;;;;;;;;5062548;28;20144;-68
2023/05/03 06:07:34;;;;;;;5.15;2.97;;;;;;;;;;5072236;28;20106;-68
2023/05/03 06:10:00;;;;;;;4.40;2.83;;;;;;;;;;5057688;28;20047;-67
2023/05/03 06:12:27;;;;;;;3.17;2.20;;;;;;;;;;5071829;28;20048;-68
2023/05/03 06:14:53;;;;;;;3.40;2.90;;;;;;;;;;5058857;28;20044;-68
2023/05/03 06:17:28;;;;;;;4.38;3.08;;;;;;;;;;5071194;28;20139;-68
2023/05/03 06:19:54;;;;;;;4.40;2.80;;;;;;;;;;5069028;28;20132;-68
2023/05/03 06:22:21;;;;;;;5.68;3.15;;;;;;;;;;5072279;28;20079;-68
2023/05/03 06:24:47;;;;;;;4.80;2.80;;;;;;;;;;5059819;28;20566;-68
2023/05/03 06:27:13;;;;;;;5.22;4.28;;;;;;;;;;5050538;28;20055;-66
2023/05/03 06:29:40;;;;;;;4.40;4.00;;;;;;;;;;5051558;28;20153;-68
2023/05/03 06:32:06;;;;;;;5.13;3.50;;;;;;;;;;5053382;28;20385;-68
2023/05/03 06:34:33;;;;;;;4.38;3.40;;;;;;;;;;5061017;28;20098;-68
2023/05/03 06:36:59;;;;;;;3.20;2.90;;;;;;;;;;5053145;28;20060;-68
2023/05/03 06:39:27;;;;;;;3.35;2.60;;;;;;;;;;5062723;28;20140;-68
2023/05/03 06:41:53;;;;;;;4.65;3.05;;;;;;;;;;5068427;28;20079;-67
2023/05/03 06:44:19;;;;;;;2.70;2.47;;;;;;;;;;5057779;28;20049;-69
2023/05/03 06:46:46;;;;;;;4.47;3.08;;;;;;;;;;5069634;28;20053;-68
2023/05/03 06:49:12;;;;;;;3.92;2.47;;;;;;;;;;5057433;28;20401;-68
2023/05/03 06:51:39;;;;;;;2.90;2.60;;;;;;;;;;5069483;28;20045;-68
2023/05/03 06:54:05;;;;;;;4.43;2.17;;;;;;;;;;5057398;28;20048;-68
2023/05/03 06:56:35;;;;;;;2.60;2.40;;;;;;;;;;5056778;28;20048;-68
2023/05/03 06:59:02;;;;;;;2.30;2.10;;;;;;;;;;5058670;28;20560;-68
2023/05/03 07:01:29;;;;;;;3.35;2.47;;;;;;;;;;5071119;28;20055;-68
2023/05/03 07:03:56;;;;;;;3.33;2.20;;;;;;;;;;5063682;28;20058;-68
2023/05/03 07:06:23;;;;;;;4.05;2.42;;;;;;;;;;5071186;28;20090;-68
2023/05/03 07:08:50;;;;;;;2.45;2.10;;;;;;;;;;5046325;28;20103;-68
2023/05/03 07:11:17;;;;;;;3.03;2.33;;;;;;;;;;5071241;28;20041;-68
2023/05/03 07:13:44;;;;;;;3.20;2.17;;;;;;;;;;5056899;28;20049;-68
2023/05/03 07:16:10;;;;;;;3.13;2.60;;;;;;;;;;5071326;28;20064;-68
2023/05/03 07:18:36;;;;;;;3.47;2.15;;;;;;;;;;5044996;28;20053;-68
2023/05/03 07:21:05;;;;;;;3.13;2.20;;;;;;;;;;5068465;28;20052;-68
2023/05/03 07:23:34;;;;;;;3.38;2.00;;;;;;;;;;5067643;28;20534;-68
2023/05/03 07:26:00;;;;;;;3.30;1.83;;;;;;;;;;5070575;28;20492;-68
2023/05/03 07:28:27;;;;;;;4.60;1.92;;;;;;;;;;5068232;28;20067;-68
2023/05/03 07:30:53;;;;;;;3.30;1.80;;;;;;;;;;5070261;28;20048;-68
2023/05/03 07:33:20;;;;;;;3.17;1.90;;;;;;;;;;5067344;28;20523;-68
2023/05/03 07:35:47;;;;;;;3.08;2.08;;;;;;;;;;5071329;28;20056;-68
2023/05/03 07:38:14;;;;;;;2.05;1.77;;;;;;;;;;5064572;28;20484;-68
2023/05/03 07:40:40;;;;;;;2.65;2.20;;;;;;;;;;5070959;28;20111;-68
2023/05/03 07:43:09;;;;;;;2.97;1.58;;;;;;;;;;5062798;28;20049;-68
2023/05/03 07:45:36;;;;;;;2.05;1.75;;;;;;;;;;5070884;28;20403;-68
2023/05/03 07:48:06;;;;;;;2.15;1.65;;;;;;;;;;5064952;28;20392;-68
2023/05/03 07:50:32;;;;;;;2.42;1.55;;;;;;;;;;5070973;28;20052;-68
2023/05/03 07:52:59;;;;;;;2.97;1.73;;;;;;;;;;5059361;28;20420;-68
2023/05/03 07:55:25;;;;;;;3.22;1.45;;;;;;;;;;5071401;28;20131;-68
2023/05/03 07:57:57;;;;;;;3.17;1.52;;;;;;;;;;5063250;28;20106;-68
2023/05/03 08:00:24;;;;;;;3.58;1.77;;;;;;;;;;5056516;28;20049;-68
2023/05/03 08:02:50;;;;;;;2.33;1.58;;;;;;;;;;5063097;28;20049;-68
2023/05/03 08:05:17;;;;;;;3.35;1.60;;;;;;;;;;5069858;28;20056;-68
2023/05/03 08:07:44;;;;;;;4.05;1.73;;;;;;;;;;5064302;28;20053;-68
2023/05/03 08:10:10;;;;;;;2.42;1.48;;;;;;;;;;5062972;28;20506;-68
2023/05/03 08:12:37;;;;;;;2.25;1.40;;;;;;;;;;5064848;28;20551;-68
2023/05/03 08:15:06;;;;;;;2.90;1.50;;;;;;;;;;5062835;28;20056;-68
2023/05/03 08:17:39;;;;;;;2.17;1.50;;;;;;;;;;5063369;28;20093;-68
2023/05/03 08:20:07;;;;;;;1.60;1.50;;;;;;;;;;5052098;28;20392;-68
2023/05/03 08:22:35;;;;;;;2.63;1.60;;;;;;;;;;5069088;28;20119;-68
2023/05/03 08:25:03;;;;;;;1.40;1.30;;;;;;;;;;5071050;28;20131;-68
2023/05/03 08:27:30;;;;;;;3.17;1.52;;;;;;;;;;5067448;28;20152;-68
2023/05/03 08:29:56;;;;;;;2.30;1.60;;;;;;;;;;5064341;28;20131;-68
2023/05/03 08:32:23;;;;;;;3.45;1.40;;;;;;;;;;5073667;28;20056;-68
2023/05/03 08:34:51;;;;;;;4.45;1.17;;;;;;;;;;5074467;28;20053;-68
2023/05/03 08:37:17;;;;;;;2.03;1.50;;;;;;;;;;5066547;28;20049;-68
2023/05/03 08:39:44;;;;;;;2.30;1.08;;;;;;;;;;5074236;28;20048;-68
2023/05/03 08:42:10;;;;;;;3.40;1.60;;;;;;;;;;5066057;28;20059;-68
2023/05/03 08:44:38;;;;;;;3.30;1.30;;;;;;;;;;5074225;28;20056;-68
2023/05/03 08:47:05;;;;;;;1.80;1.13;;;;;;;;;;5058007;28;20540;-68
2023/05/03 08:49:32;;;;;;;1.38;1.20;;;;;;;;;;5073644;28;20045;-68
2023/05/03 08:52:00;;;;;;;1.77;1.25;;;;;;;;;;5057383;28;20062;-69
2023/05/03 08:54:26;;;;;;;2.40;1.17;;;;;;;;;;5073983;28;20496;-69
2023/05/03 08:56:53;;;;;;;1.70;1.10;;;;;;;;;;5055042;28;20074;-69
2023/05/03 08:59:19;;;;;;;1.65;1.38;;;;;;;;;;5073385;28;20052;-69
2023/05/03 09:01:45;;;;;;;2.65;1.27;;;;;;;;;;5062453;28;20087;-69
2023/05/03 09:04:12;;;;;;;3.10;1.13;;;;;;;;;;5073663;28;20105;-69
2023/05/03 09:06:39;;;;;;;3.67;1.23;;;;;;;;;;5071294;28;20060;-69
2023/05/03 09:09:06;;;;;;;1.85;1.02;;;;;;;;;;5072599;28;20044;-69
2023/05/03 09:11:33;;;;;;;1.08;0.98;;;;;;;;;;5070785;28;20397;-68
2023/05/03 09:14:12;;;;;;;2.10;1.20;;;;;;;;;;5073489;28;20044;-68
2023/05/03 09:16:39;;;;;;;1.27;0.90;;;;;;;;;;5069629;28;20095;-69
2023/05/03 09:19:08;;;;;;;1.63;0.90;;;;;;;;;;5073149;28;20423;-68
2023/05/03 09:21:35;;;;;;;2.13;1.05;;;;;;;;;;5068776;28;20052;-69
2023/05/03 09:24:03;;;;;;;3.42;1.15;;;;;;;;;;5073322;28;20052;-69
2023/05/03 09:26:30;;;;;;;2.08;1.20;;;;;;;;;;5064578;28;20435;-69
2023/05/03 09:28:56;;;;;;;;;;;;;;;;;;5072678;28;20055;-69
2023/05/03 09:31:22;;;;;;;1.33;0.95;;;;;;;;;;5063511;28;19924;-69
2023/05/03 09:33:50;;;;;;;2.08;1.00;;;;;;;;;;5073243;28;20052;-69
2023/05/03 09:36:16;;;;;;;2.47;1.10;;;;;;;;;;5065850;28;20045;-69
2023/05/03 09:38:43;;;;;;;2.17;1.10;;;;;;;;;;5072044;28;20048;-69
2023/05/03 09:41:09;;;;;;;1.90;1.17;;;;;;;;;;5063724;28;20312;-69
2023/05/03 09:43:47;;;;;;;3.47;1.30;;;;;;;;;;5073200;28;20489;-69
2023/05/03 09:46:13;;;;;;;1.20;1.00;;;;;;;;;;5058064;28;20064;-69
2023/05/03 09:48:40;;;;;;;2.15;1.20;;;;;;;;;;5071528;28;20052;-69
2023/05/03 09:51:07;;;;;;;1.75;1.30;;;;;;;;;;5053955;28;20096;-69
2023/05/03 09:53:35;;;;;;;5.93;1.58;;;;;;;;;;5072748;28;20132;-69
2023/05/03 09:56:03;;;;;;;1.75;1.55;;;;;;;;;;5056776;28;20128;-70
2023/05/03 09:58:33;;;;;;;1.77;1.48;;;;;;;;;;5070251;28;20139;-70
2023/05/03 10:01:00;;;;;;;2.38;1.40;;;;;;;;;;5055696;28;20140;-70
2023/05/03 10:03:32;;;;;;;3.55;1.55;;;;;;;;;;5068672;28;20051;-70
2023/05/03 10:06:01;;;;;;;3.17;1.52;;;;;;;;;;5070506;28;20399;-70
2023/05/03 10:08:36;;;;;;;2.63;1.60;;;;;;;;;;5071322;28;20098;-70
2023/05/03 10:11:03;;;;;;;2.08;1.35;;;;;;;;;;5069516;28;20040;-70
2023/05/03 10:13:30;;;;;;;2.35;1.25;;;;;;;;;;5072328;28;20131;-70
2023/05/03 10:15:57;;;;;;;;;;;;;;;;;;5069149;28;20400;-70
2023/05/03 10:18:23;;;;;;;;;;;;;;;;;;5071448;28;19924;-70
2023/05/03 10:20:53;;;;;;;3.42;1.17;;;;;;;;;;5067395;28;19928;-70
2023/05/03 10:23:20;;;;;;;2.50;1.20;;;;;;;;;;5072490;28;20056;-70
2023/05/03 10:26:05;;;;;;;2.80;1.20;;;;;;;;;;5066778;28;20051;-70
2023/05/03 10:28:34;;;;;;;1.27;1.10;;;;;;;;;;5072151;28;20124;-70
2023/05/03 10:31:01;;;;;;;2.55;1.23;;;;;;;;;;5065902;28;20119;-70
2023/05/03 10:33:29;;;;;;;2.20;0.93;;;;;;;;;;5072327;28;20070;-70
2023/05/03 10:35:57;;;;;;;2.08;1.30;;;;;;;;;;5065038;28;20122;-70
2023/05/03 10:38:25;;;;;;;2.90;1.30;;;;;;;;;;5071542;28;20135;-70
2023/05/03 10:40:52;;;;;;;1.73;1.00;;;;;;;;;;5058660;28;20092;-70
2023/05/03 10:43:27;;;;;;;2.72;1.10;;;;;;;;;;5044789;28;20131;-70
2023/05/03 10:45:57;;;;;;;1.30;1.08;;;;;;;;;;5063311;28;20059;-70
2023/05/03 10:48:24;;;;;;;3.22;1.10;;;;;;;;;;5042896;28;20098;-70
2023/05/03 10:50:51;;;;;;;1.77;0.90;;;;;;;;;;5063662;28;20052;-70
2023/05/03 10:53:30;;;;;;;1.85;1.15;;;;;;;;;;5069877;28;20094;-70
2023/05/03 10:56:14;;;;;;;1.58;0.77;;;;;;;;;;5062948;28;20071;-70
2023/05/03 10:58:42;;;;;;;1.30;1.20;;;;;;;;;;5057954;28;20049;-71
2023/05/03 11:01:12;;;;;;;2.25;1.65;;;;;;;;;;5061166;28;20140;-70
2023/05/03 11:03:39;;;;;;;2.97;1.23;;;;;;;;;;5071347;28;20061;-71
2023/05/03 11:06:06;;;;;;;2.25;1.25;;;;;;;;;;5069480;28;20127;-71
2023/05/03 11:08:36;;;;;;;3.10;1.25;;;;;;;;;;5070962;28;20061;-70
2023/05/03 11:11:08;;;;;;;1.60;1.10;;;;;;;;;;5068945;28;20052;-70
2023/05/03 11:13:35;;;;;;;3.63;1.50;;;;;;;;;;5071893;28;20110;-70
2023/05/03 11:16:03;;;;;;;3.20;1.30;;;;;;;;;;5067586;28;20181;-70
2023/05/03 11:18:31;;;;;;;2.15;1.30;;;;;;;;;;5070485;28;20052;-70
2023/05/03 11:20:57;;;;;;;2.72;1.40;;;;;;;;;;5064767;28;20087;-70
2023/05/03 11:23:23;;;;;;;;;;;;;;;;;;5072189;28;20064;-71
2023/05/03 11:25:50;;;;;;;1.52;1.20;;;;;;;;;;5063361;28;19928;-70
2023/05/03 11:28:17;;;;;;;1.55;1.40;;;;;;;;;;5070806;28;20045;-70
2023/05/03 11:30:45;;;;;;;2.90;1.40;;;;;;;;;;5065187;28;20119;-70
2023/05/03 11:33:12;;;;;;;1.45;1.30;;;;;;;;;;5071038;28;20128;-70
2023/05/03 11:35:38;;;;;;;1.80;1.13;;;;;;;;;;5065372;28;20053;-70
2023/05/03 11:38:04;;;;;;;1.88;1.77;;;;;;;;;;5068989;28;20048;-71
2023/05/03 11:40:31;;;;;;;3.13;1.77;;;;;;;;;;5063887;28;20148;-70
2023/05/03 11:42:58;;;;;;;2.25;1.60;;;;;;;;;;5066220;28;20407;-70
2023/05/03 11:45:27;;;;;;;3.20;1.52;;;;;;;;;;5065509;28;20115;-70
2023/05/03 11:47:54;;;;;;;3.60;1.85;;;;;;;;;;5061841;28;20438;-70
2023/05/03 11:50:40;;;;;;;1.90;1.70;;;;;;;;;;5067631;28;20512;-70
2023/05/03 11:53:06;;;;;;;2.85;1.75;;;;;;;;;;5067625;28;20135;-70
2023/05/03 11:55:33;;;;;;;1.95;1.60;;;;;;;;;;5065652;28;20492;-70
2023/05/03 11:57:59;;;;;;;3.83;2.50;;;;;;;;;;5064670;28;20507;-70
2023/05/03 12:00:26;;;;;;;4.10;2.40;;;;;;;;;;5066389;28;20183;-70
2023/05/03 12:02:52;;;;;;;2.28;1.80;;;;;;;;;;5065658;28;20049;-70
2023/05/03 12:05:20;;;;;;;2.35;1.67;;;;;;;;;;5071281;28;20160;-70
2023/05/03 12:07:48;;;;;;;2.53;1.60;;;;;;;;;;5062787;28;20045;-70
2023/05/03 12:10:17;;;;;;;2.70;1.65;;;;;;;;;;5072083;28;20060;-71
2023/05/03 12:12:53;;;;;;;2.92;1.40;;;;;;;;;;5074617;28;20170;-70
2023/05/03 12:15:42;;;;;;;2.08;1.60;;;;;;;;;;5068292;28;20080;-70
2023/05/03 12:18:10;;;;;;;3.03;1.63;;;;;;;;;;5074417;28;20123;-70
2023/05/03 12:20:38;;;;;;;1.50;1.40;;;;;;;;;;5069952;28;20459;-70
2023/05/03 12:23:08;;;;;;;3.55;1.85;;;;;;;;;;5074479;28;20048;-70
2023/05/03 12:25:36;;;;;;;1.77;1.50;;;;;;;;;;5068804;28;20135;-70
2023/05/03 12:28:07;;;;;;;2.25;1.65;;;;;;;;;;5074191;28;20036;-70
2023/05/03 12:30:46;;;;;;;1.77;1.58;;;;;;;;;;5068127;28;20131;-70
2023/05/03 12:33:14;;;;;;;2.10;1.60;;;;;;;;;;5073814;28;20052;-70
2023/05/03 12:35:42;;;;;;;4.03;1.60;;;;;;;;;;5067813;28;20056;-70
2023/05/03 12:38:13;;;;;;;1.80;1.70;;;;;;;;;;5060460;28;20082;-70
2023/05/03 12:40:43;;;;;;;2.40;1.50;;;;;;;;;;5067717;28;20444;-70
2023/05/03 12:43:10;;;;;;;3.00;1.55;;;;;;;;;;5073314;28;20055;-70
2023/05/03 12:45:37;;;;;;;3.28;1.50;;;;;;;;;;5068748;28;20041;-70
2023/05/03 12:48:07;;;;;;;2.80;1.70;;;;;;;;;;5070633;28;20051;-70
2023/05/03 12:50:34;;;;;;;2.88;1.52;;;;;;;;;;5068408;28;20551;-70
2023/05/03 12:53:04;;;;;;;3.20;1.50;;;;;;;;;;5070269;28;20058;-70
2023/05/03 12:55:35;;;;;;;3.65;1.50;;;;;;;;;;5065186;28;20437;-70
2023/05/03 12:58:09;;;;;;;3.40;1.70;;;;;;;;;;5066418;28;20044;-70
2023/05/03 13:00:38;;;;;;;2.63;1.90;;;;;;;;;;5064302;28;20073;-70
2023/05/03 13:03:24;;;;;;;3.53;1.90;;;;;;;;;;5069216;28;20495;-70
2023/05/03 13:05:59;;;;;;;2.90;2.08;;;;;;;;;;5071637;28;20514;-70
2023/05/03 13:08:27;;;;;;;2.47;2.00;;;;;;;;;;5073183;28;20044;-70
2023/05/03 13:11:00;;;;;;;2.50;1.63;;;;;;;;;;5071009;28;20044;-70
2023/05/03 13:13:27;;;;;;;3.80;1.70;;;;;;;;;;5073579;28;20052;-70
2023/05/03 13:15:54;;;;;;;3.13;2.00;;;;;;;;;;5068051;28;20491;-70
2023/05/03 13:18:21;;;;;;;3.05;2.08;;;;;;;;;;5072991;28;20084;-69
2023/05/03 13:20:49;;;;;;;4.72;2.40;;;;;;;;;;5069148;28;20106;-69
2023/05/03 13:23:15;;;;;;;3.85;2.05;;;;;;;;;;5074022;28;20056;-69
2023/05/03 13:25:42;;;;;;;;;;;;;;;;;;5068550;28;20049;-70
2023/05/03 13:28:09;;;;;;;3.08;2.10;;;;;;;;;;5072768;28;20434;-70
2023/05/03 13:30:35;;;;;;;3.40;1.80;;;;;;;;;;5067792;28;20049;-70
2023/05/03 13:33:01;;;;;;;3.78;2.30;;;;;;;;;;5073051;28;20048;-70
2023/05/03 13:35:28;;;;;;;4.15;2.50;;;;;;;;;;5068562;28;20045;-70
2023/05/03 13:37:55;;;;;;;2.88;1.80;;;;;;;;;;5069407;28;20736;-70
2023/05/03 13:40:23;;;;;;;5.20;2.53;;;;;;;;;;5069204;28;20139;-70
2023/05/03 13:42:49;;;;;;;2.83;1.95;;;;;;;;;;5069589;28;20052;-70
2023/05/03 13:45:17;;;;;;;3.58;2.17;;;;;;;;;;5070276;28;20055;-70
2023/05/03 13:47:43;;;;;;;2.58;1.70;;;;;;;;;;5065899;28;20098;-70
2023/05/03 13:50:12;;;;;;;4.38;2.60;;;;;;;;;;5070270;28;20045;-70
2023/05/03 13:52:41;;;;;;;2.58;2.20;;;;;;;;;;5066004;28;20488;-70
2023/05/03 13:55:07;;;;;;;3.30;2.38;;;;;;;;;;5071483;28;20044;-70
2023/05/03 13:57:34;;;;;;;2.83;2.30;;;;;;;;;;5055567;28;20070;-70
2023/05/03 14:00:00;;;;;;;2.92;2.42;;;;;;;;;;5072409;28;20570;-70
2023/05/03 14:02:28;;;;;;;4.57;2.60;;;;;;;;;;5061798;28;20048;-70
2023/05/03 14:04:54;;;;;;;3.67;2.80;;;;;;;;;;5073024;28;20399;-70
2023/05/03 14:07:21;;;;;;;2.90;2.13;;;;;;;;;;5055803;28;20047;-70
2023/05/03 14:09:47;;;;;;;4.18;2.30;;;;;;;;;;5072135;28;20051;-70
2023/05/03 14:12:13;;;;;;;3.63;2.30;;;;;;;;;;5069180;28;20059;-70
2023/05/03 14:14:40;;;;;;;4.47;2.65;;;;;;;;;;5072383;28;20470;-70
2023/05/03 14:17:07;;;;;;;3.75;2.55;;;;;;;;;;5068331;28;20052;-70
2023/05/03 14:19:34;;;;;;;4.57;3.53;;;;;;;;;;5072549;28;20051;-70
2023/05/03 14:22:01;;;;;;;3.45;3.10;;;;;;;;;;5065842;28;20060;-70
2023/05/03 14:24:28;;;;;;;4.85;3.05;;;;;;;;;;5072119;28;20048;-70
2023/05/03 14:26:54;;;;;;;;;;;;;;;;;;5063406;28;20048;-70
2023/05/03 14:29:20;;;;;;;3.60;2.67;;;;;;;;;;5071968;28;20215;-69
2023/05/03 14:31:47;;;;;;;;;;;;;;;;;;5066129;28;20515;-70
2023/05/03 14:34:13;;;;;;;4.68;2.80;;;;;;;;;;5071627;28;19920;-70
2023/05/03 14:36:42;;;;;;;6.07;3.13;;;;;;;;;;5060353;28;20480;-69
2023/05/03 14:39:10;;;;;;;5.32;3.60;;;;;;;;;;5071942;28;20048;-69
2023/05/03 14:41:36;;;;;;;4.55;3.28;;;;;;;;;;5064192;28;20063;-69
2023/05/03 14:44:02;;;;;;;3.58;3.05;;;;;;;;;;5072118;28;20052;-69
2023/05/03 14:46:29;;;;;;;;;;;;;;;;;;5063345;28;20041;-69